Time;durP1;ratioP1;P1;durP2;ratioP2;P2;SDS_P1;SDS_P2;PMS_P1;PMS_P2;Temp;Humidity;BMP_temperature;BMP_pressure;BME280_temperature;BME280_humidity;BME280_pressure;Samples;Min_cycle;Max_cycle;Signal;HPM_P1;HPM_P2
2022/03/03 00:01:43;;;;;;;36.92;18.60;;;;;;;1.65;80.09;99990.41;5096521;28;20126;-78
2022/03/03 00:04:11;;;;;;;36.78;19.30;;;;;;;1.65;80.62;99982.44;5096824;28;20048;-78
2022/03/03 00:06:39;;;;;;;38.13;19.33;;;;;;;1.66;80.36;99979.72;5096836;28;20032;-77
2022/03/03 00:09:06;;;;;;;40.80;19.30;;;;;;;1.64;80.75;99986.00;5096798;28;20044;-79
2022/03/03 00:11:34;;;;;;;79.03;31.98;;;;;;;1.64;80.38;99986.84;5096701;28;20040;-76
2022/03/03 00:14:02;;;;;;;110.38;44.95;;;;;;;1.63;80.01;99986.88;5096604;28;20047;-77
2022/03/03 00:16:29;;;;;;;63.17;32.05;;;;;;;1.64;80.35;99978.88;5096307;28;20044;-77
2022/03/03 00:18:59;;;;;;;39.50;21.05;;;;;;;1.63;81.05;99981.53;5096605;28;20427;-78
2022/03/03 00:21:26;;;;;;;35.85;19.00;;;;;;;1.54;80.89;99977.28;5096510;28;20051;-76
2022/03/03 00:23:53;;;;;;;35.97;18.13;;;;;;;1.51;81.52;99978.19;5096488;28;20519;-78
2022/03/03 00:26:21;;;;;;;38.22;18.98;;;;;;;1.49;81.08;99981.81;5096447;28;20063;-78
2022/03/03 00:28:49;;;;;;;32.80;17.20;;;;;;;1.49;81.36;99974.69;5096360;28;20429;-77
2022/03/03 00:31:16;;;;;;;36.53;18.52;;;;;;;1.50;81.54;99971.09;5095824;28;20040;-79
2022/03/03 00:33:44;;;;;;;54.28;28.13;;;;;;;1.52;81.09;99969.31;5096348;28;20044;-77
2022/03/03 00:36:13;;;;;;;47.97;24.90;;;;;;;1.60;80.59;99974.50;5096113;28;20047;-77
2022/03/03 00:38:40;;;;;;;52.10;24.83;;;;;;;1.62;79.11;99963.81;5096258;28;20048;-76
2022/03/03 00:41:08;;;;;;;53.85;28.60;;;;;;;1.61;79.77;99962.94;5096109;28;20558;-77
2022/03/03 00:43:35;;;;;;;51.08;26.25;;;;;;;1.60;79.87;99961.19;5095669;28;20040;-78
2022/03/03 00:46:03;;;;;;;44.95;23.50;;;;;;;1.63;79.80;99961.13;5096057;28;20043;-77
2022/03/03 00:48:31;;;;;;;46.97;23.45;;;;;;;1.63;80.03;99960.25;5095747;28;20040;-78
2022/03/03 00:50:59;;;;;;;41.13;20.98;;;;;;;1.64;79.83;99967.34;5095709;28;20051;-76
2022/03/03 00:53:28;;;;;;;43.47;22.45;;;;;;;1.62;80.29;99953.16;5095873;28;20048;-76
2022/03/03 00:55:56;;;;;;;43.17;20.90;;;;;;;1.54;80.51;99955.97;5095666;28;20055;-78
2022/03/03 00:58:24;;;;;;;40.72;21.52;;;;;;;1.57;80.82;99954.13;5094418;28;20047;-78
2022/03/03 01:00:51;;;;;;;41.80;21.52;;;;;;;1.55;81.19;99942.63;5095856;28;20048;-77
2022/03/03 01:03:19;;;;;;;40.75;20.27;;;;;;;1.56;81.14;99938.19;5095697;28;20048;-76
2022/03/03 01:05:46;;;;;;;40.25;20.48;;;;;;;1.54;81.62;99942.66;5095845;28;20047;-76
2022/03/03 01:08:14;;;;;;;44.45;20.20;;;;;;;1.52;81.49;99942.69;5095769;28;20040;-78
2022/03/03 01:10:43;;;;;;;42.40;21.30;;;;;;;1.53;81.83;99943.56;5094461;28;20055;-79
2022/03/03 01:13:10;;;;;;;45.65;21.10;;;;;;;1.53;82.24;99940.91;5095256;28;20040;-78
2022/03/03 01:15:38;;;;;;;42.38;20.58;;;;;;;1.56;82.14;99944.38;5095419;28;20055;-77
2022/03/03 01:18:05;;;;;;;40.70;20.42;;;;;;;1.52;82.30;99939.16;5095515;28;20040;-78
2022/03/03 01:20:33;;;;;;;40.65;21.23;;;;;;;1.49;82.43;99933.88;5095376;28;20048;-79
2022/03/03 01:23:01;;;;;;;41.58;19.98;;;;;;;1.47;82.87;99939.22;5094035;28;20409;-79
2022/03/03 01:25:28;;;;;;;46.10;21.42;;;;;;;1.46;83.22;99936.59;5095442;28;20059;-78
2022/03/03 01:27:57;;;;;;;43.20;21.50;;;;;;;1.48;83.08;99934.78;5095062;28;20044;-79
2022/03/03 01:30:25;;;;;;;40.65;21.77;;;;;;;1.52;83.00;99931.16;5095351;28;20052;-78
2022/03/03 01:32:52;;;;;;;42.88;22.25;;;;;;;1.50;82.96;99931.19;5095339;28;20085;-79
2022/03/03 01:35:20;;;;;;;43.33;21.42;;;;;;;1.44;83.42;99931.28;5095057;28;20489;-77
2022/03/03 01:37:47;;;;;;;43.35;22.30;;;;;;;1.49;83.70;99933.88;5095355;28;20481;-78
2022/03/03 01:40:15;;;;;;;39.45;21.95;;;;;;;1.42;83.50;99930.44;5095010;28;20044;-79
2022/03/03 01:42:42;;;;;;;45.90;22.40;;;;;;;1.47;83.77;99927.72;5094533;28;20040;-78
2022/03/03 01:45:12;;;;;;;46.80;23.15;;;;;;;1.42;83.55;99925.13;5095019;28;20036;-79
2022/03/03 01:47:39;;;;;;;49.55;23.95;;;;;;;1.41;83.64;99932.19;5094850;28;20040;-77
2022/03/03 01:50:07;;;;;;;46.67;22.38;;;;;;;1.45;83.62;99930.38;5094395;28;20508;-80
2022/03/03 01:52:35;;;;;;;46.15;23.00;;;;;;;1.43;83.66;99927.75;5094797;28;20051;-79
2022/03/03 01:55:03;;;;;;;46.03;23.35;;;;;;;1.49;83.53;99925.91;5094725;28;20044;-78
2022/03/03 01:57:32;;;;;;;42.05;23.30;;;;;;;1.43;83.75;99927.75;5094727;28;20051;-79
2022/03/03 02:00:00;;;;;;;46.47;24.33;;;;;;;1.41;83.50;99926.88;5094359;28;20074;-77
2022/03/03 02:02:29;;;;;;;42.55;22.73;;;;;;;1.41;83.62;99921.56;5094564;28;20101;-78
2022/03/03 02:04:56;;;;;;;45.08;23.38;;;;;;;1.41;83.28;99913.56;5094509;28;20070;-78
2022/03/03 02:07:24;;;;;;;48.15;22.42;;;;;;;1.42;83.33;99917.13;5094432;28;20040;-79
2022/03/03 02:09:52;;;;;;;47.58;23.42;;;;;;;1.39;83.69;99909.19;5094254;28;20131;-77
2022/03/03 02:12:20;;;;;;;45.13;23.17;;;;;;;1.37;83.39;99898.56;5094071;28;20485;-77
2022/03/03 02:14:48;;;;;;;42.83;23.17;;;;;;;1.39;83.53;99902.06;5094272;28;20044;-78
2022/03/03 02:17:16;;;;;;;45.05;23.08;;;;;;;1.37;83.32;99895.03;5094181;28;20051;-79
2022/03/03 02:19:46;;;;;;;45.28;22.52;;;;;;;1.32;83.12;99888.94;5094301;28;20052;-78
2022/03/03 02:22:15;;;;;;;41.70;22.48;;;;;;;1.33;83.04;99891.53;5094095;28;20496;-77
2022/03/03 02:24:43;;;;;;;44.08;22.23;;;;;;;1.37;82.97;99895.03;5094160;28;20052;-79
2022/03/03 02:27:11;;;;;;;46.78;22.92;;;;;;;1.32;83.17;99899.56;5093828;28;20048;-76
2022/03/03 02:29:38;;;;;;;42.88;21.92;;;;;;;1.32;82.74;99897.78;5094195;28;20126;-78
2022/03/03 02:32:08;;;;;;;49.10;22.90;;;;;;;1.32;83.04;99887.13;5094185;28;20475;-77
2022/03/03 02:34:36;;;;;;;42.55;22.60;;;;;;;1.34;83.04;99900.41;5094003;28;20040;-79
2022/03/03 02:37:04;;;;;;;45.80;21.95;;;;;;;1.29;83.36;99888.06;5094199;28;20036;-80
2022/03/03 02:39:33;;;;;;;41.10;21.98;;;;;;;1.29;83.65;99887.19;5092382;28;20052;-79
2022/03/03 02:42:00;;;;;;;46.53;22.40;;;;;;;1.29;83.32;99881.84;5093914;28;20066;-77
2022/03/03 02:44:28;;;;;;;45.90;22.45;;;;;;;1.30;83.62;99879.19;5094079;28;20044;-77
2022/03/03 02:46:56;;;;;;;46.53;23.05;;;;;;;1.28;83.86;99877.44;5093899;28;20048;-79
2022/03/03 02:49:23;;;;;;;44.03;23.23;;;;;;;1.29;83.53;99874.75;5093405;28;20044;-79
2022/03/03 02:51:51;;;;;;;41.50;22.23;;;;;;;1.28;83.42;99874.78;5093704;28;20036;-78
2022/03/03 02:54:19;;;;;;;41.05;21.30;;;;;;;1.30;83.39;99871.19;5093468;28;20051;-78
2022/03/03 02:59:29;;;;;;;40.60;21.70;;;;;;;1.30;83.26;99870.31;5031274;28;20433;-77
2022/03/03 03:01:56;;;;;;;43.30;21.73;;;;;;;1.29;82.99;99863.22;5031503;28;20057;-78
2022/03/03 03:04:24;;;;;;;42.25;21.58;;;;;;;1.30;82.92;99868.53;5031262;28;20384;-79
2022/03/03 03:06:51;;;;;;;39.40;20.70;;;;;;;1.29;82.59;99869.44;5031352;28;20049;-79
2022/03/03 03:09:19;;;;;;;44.22;21.27;;;;;;;1.32;82.15;99872.97;5030962;28;20455;-77
2022/03/03 03:11:48;;;;;;;43.50;22.05;;;;;;;1.30;82.46;99865.88;5031353;28;20069;-76
2022/03/03 03:14:16;;;;;;;42.88;22.50;;;;;;;1.31;82.46;99861.41;5031211;28;20096;-77
2022/03/03 03:16:44;;;;;;;43.97;21.30;;;;;;;1.27;82.07;99857.94;5031005;28;20553;-80
2022/03/03 03:19:11;;;;;;;45.78;23.00;;;;;;;1.30;81.92;99860.56;5031173;28;20060;-76
2022/03/03 03:21:39;;;;;;;44.45;22.30;;;;;;;1.27;82.24;99863.28;5030773;28;20057;-77
2022/03/03 03:24:07;;;;;;;40.42;20.92;;;;;;;1.28;82.56;99854.38;5030742;28;20069;-78
2022/03/03 03:26:34;;;;;;;42.50;21.75;;;;;;;1.14;83.26;99849.31;5031268;28;20050;-78
2022/03/03 03:29:04;;;;;;;42.00;21.75;;;;;;;1.22;83.03;99849.16;5030915;28;20049;-79
2022/03/03 03:31:31;;;;;;;40.95;21.33;;;;;;;1.23;82.88;99844.72;5030887;28;20542;-78
2022/03/03 03:33:58;;;;;;;41.35;21.10;;;;;;;1.17;83.20;99845.69;5031039;28;20060;-77
2022/03/03 03:36:26;;;;;;;41.15;21.15;;;;;;;1.17;83.39;99845.69;5053222;28;20074;-77
2022/03/03 03:38:54;;;;;;;41.20;22.13;;;;;;;1.19;83.43;99843.00;5092931;28;20054;-77
2022/03/03 03:41:21;;;;;;;48.20;24.90;;;;;;;1.17;83.09;99845.69;5093184;28;20110;-78
2022/03/03 03:43:49;;;;;;;50.42;26.85;;;;;;;1.18;83.25;99846.59;5093157;28;20409;-76
2022/03/03 03:46:18;;;;;;;51.13;26.33;;;;;;;1.20;83.24;99850.09;5092884;28;20058;-76
2022/03/03 03:48:45;;;;;;;44.85;24.90;;;;;;;1.19;82.85;99843.00;5092645;28;20040;-78
2022/03/03 03:51:13;;;;;;;44.38;22.77;;;;;;;1.15;84.01;99837.75;5092681;28;20055;-78
2022/03/03 03:53:41;;;;;;;47.33;23.65;;;;;;;1.15;84.10;99836.84;5092699;28;20066;-79
2022/03/03 03:56:08;;;;;;;40.38;21.17;;;;;;;1.14;83.75;99841.31;5092696;28;20047;-77
2022/03/03 03:58:36;;;;;;;38.92;19.50;;;;;;;1.09;84.38;99831.66;5092771;28;20066;-77
2022/03/03 04:01:03;;;;;;;39.05;19.52;;;;;;;1.10;84.16;99834.28;5093221;28;20535;-77
2022/03/03 04:03:32;;;;;;;36.83;18.95;;;;;;;1.10;84.25;99833.41;5092846;28;20051;-77
2022/03/03 04:06:00;;;;;;;35.65;18.17;;;;;;;1.10;84.28;99833.41;5092486;28;20093;-77
2022/03/03 04:08:28;;;;;;;33.78;17.85;;;;;;;1.08;84.58;99832.56;5092465;28;20039;-77
2022/03/03 04:10:55;;;;;;;50.58;25.10;;;;;;;1.05;84.43;99838.81;5092641;28;20382;-77
2022/03/03 04:13:23;;;;;;;38.25;19.45;;;;;;;1.03;84.61;99832.66;5092761;28;20047;-77
2022/03/03 04:15:50;;;;;;;36.35;18.80;;;;;;;1.05;84.06;99828.19;5092961;28;20055;-77
2022/03/03 04:18:18;;;;;;;36.80;17.63;;;;;;;1.07;84.12;99829.03;5092639;28;20116;-77
2022/03/03 04:20:47;;;;;;;39.95;17.58;;;;;;;1.10;83.64;99833.41;5092904;28;20048;-77
2022/03/03 04:23:17;;;;;;;31.83;17.48;;;;;;;1.06;83.84;99827.28;5092312;28;20044;-76
2022/03/03 04:25:44;;;;;;;34.22;17.52;;;;;;;1.06;84.40;99823.72;5092542;28;20055;-76
2022/03/03 04:28:12;;;;;;;33.03;17.45;;;;;;;1.00;84.77;99827.34;5092396;28;20044;-77
2022/03/03 04:30:39;;;;;;;32.45;17.80;;;;;;;1.06;84.09;99819.28;5092711;28;20516;-78
2022/03/03 04:33:07;;;;;;;37.50;17.33;;;;;;;1.04;84.25;99823.78;5093847;28;20055;-79
2022/03/03 04:35:35;;;;;;;36.22;17.50;;;;;;;1.02;84.29;99814.94;5096068;28;20101;-80
2022/03/03 04:38:04;;;;;;;50.40;25.65;;;;;;;1.10;83.89;99806.81;5095887;28;20059;-78
2022/03/03 04:40:31;;;;;;;207.15;95.53;;;;;;;1.13;83.82;99820.03;5096031;28;20040;-77
2022/03/03 04:42:59;;;;;;;58.30;30.05;;;;;;;1.11;83.57;99812.09;5096142;28;20048;-78
2022/03/03 04:45:26;;;;;;;56.45;25.25;;;;;;;1.12;83.04;99804.97;5096059;28;20044;-78
2022/03/03 04:47:54;;;;;;;59.28;25.75;;;;;;;1.09;83.40;99811.25;5095963;28;20039;-78
2022/03/03 04:50:21;;;;;;;73.32;29.05;;;;;;;1.09;83.04;99810.38;5095234;28;20043;-78
2022/03/03 04:52:49;;;;;;;84.07;30.38;;;;;;;1.10;83.07;99805.03;5095855;28;20047;-78
2022/03/03 04:55:18;;;;;;;87.30;32.20;;;;;;;1.12;83.02;99804.97;5095501;28;20036;-78
2022/03/03 04:57:45;;;;;;;70.75;28.50;;;;;;;1.15;82.82;99805.81;5097179;28;20046;-79
2022/03/03 05:00:14;;;;;;;86.20;30.67;;;;;;;1.18;82.70;99804.00;5095741;28;20082;-78
2022/03/03 05:02:42;;;;;;;67.50;27.17;;;;;;;1.11;82.94;99806.78;5095679;28;20036;-79
2022/03/03 05:05:10;;;;;;;52.83;23.00;;;;;;;1.12;83.56;99807.66;5095363;28;20047;-78
2022/03/03 05:07:37;;;;;;;55.20;25.33;;;;;;;1.19;82.75;99808.44;5095694;28;20501;-79
2022/03/03 05:10:06;;;;;;;84.38;35.03;;;;;;;1.20;83.13;99807.50;5096151;28;20512;-79
2022/03/03 05:12:35;;;;;;;127.45;43.08;;;;;;;1.18;83.11;99802.22;5095404;28;20054;-78
2022/03/03 05:15:02;;;;;;;66.47;28.52;;;;;;;1.15;83.45;99802.28;5095456;28;20051;-78
2022/03/03 05:17:30;;;;;;;50.28;22.48;;;;;;;1.18;83.68;99804.00;5095461;28;20055;-77
2022/03/03 05:19:58;;;;;;;43.17;20.73;;;;;;;1.14;84.12;99806.72;5095026;28;20044;-78
2022/03/03 05:22:26;;;;;;;47.83;23.13;;;;;;;1.17;84.39;99805.78;5095587;28;20059;-79
2022/03/03 05:24:53;;;;;;;51.72;22.35;;;;;;;1.13;83.88;99810.28;5095378;28;20462;-78
2022/03/03 05:27:21;;;;;;;64.35;29.55;;;;;;;1.17;83.72;99807.56;5095196;28;20051;-78
2022/03/03 05:29:50;;;;;;;71.53;30.67;;;;;;;1.11;83.98;99808.56;5095223;28;20214;-77
2022/03/03 05:32:17;;;;;;;58.97;27.23;;;;;;;1.18;83.78;99809.34;5095095;28;20071;-79
2022/03/03 05:34:45;;;;;;;106.40;36.97;;;;;;;1.08;83.77;99809.50;5094890;28;20048;-79
2022/03/03 05:37:15;;;;;;;117.50;44.05;;;;;;;1.14;83.91;99811.16;5094697;28;20047;-79
2022/03/03 05:39:44;;;;;;;90.40;38.40;;;;;;;1.20;83.28;99815.50;5094780;28;20043;-77
2022/03/03 05:42:12;;;;;;;70.65;30.25;;;;;;;1.23;83.23;99808.34;5094970;28;20085;-77
2022/03/03 05:44:39;;;;;;;42.70;22.27;;;;;;;1.21;83.87;99809.28;5094607;28;20536;-78
2022/03/03 05:47:09;;;;;;;41.55;20.45;;;;;;;1.19;84.52;99814.59;5094928;28;20044;-78
2022/03/03 05:49:37;;;;;;;43.45;22.13;;;;;;;1.17;84.29;99792.47;5093955;28;20044;-77
2022/03/03 05:52:05;;;;;;;42.65;21.00;;;;;;;1.20;84.09;99803.06;5094752;28;20044;-78
2022/03/03 05:54:32;;;;;;;45.83;21.90;;;;;;;1.21;84.20;99801.28;5094727;28;20044;-78
2022/03/03 05:57:02;;;;;;;43.63;21.80;;;;;;;1.21;84.64;99801.28;5094601;28;20052;-79
2022/03/03 05:59:32;;;;;;;40.30;20.92;;;;;;;1.20;84.17;99802.19;5094358;28;20089;-78
2022/03/03 06:02:00;;;;;;;52.80;24.20;;;;;;;1.18;84.52;99798.69;5095827;28;20109;-78
2022/03/03 06:04:30;;;;;;;54.53;25.33;;;;;;;1.13;84.96;99798.75;5103385;28;20130;-79
2022/03/03 06:07:03;;;;;;;69.65;30.85;;;;;;;1.23;83.93;99804.78;5114821;28;20069;-79
2022/03/03 06:09:32;;;;;;;62.80;29.10;;;;;;;1.25;84.33;99806.53;5094053;28;20060;-77
2022/03/03 06:12:06;;;;;;;69.28;30.20;;;;;;;1.26;84.31;99799.41;5111279;28;20500;-77
2022/03/03 06:14:39;;;;;;;50.80;25.08;;;;;;;1.27;84.12;99801.16;5111895;28;20047;-78
2022/03/03 06:17:07;;;;;;;53.50;24.23;;;;;;;1.26;84.32;99795.00;5106931;28;20055;-78
2022/03/03 06:19:41;;;;;;;70.15;31.45;;;;;;;1.29;84.47;99807.34;5090661;28;20075;-77
2022/03/03 06:22:10;;;;;;;64.05;28.00;;;;;;;1.35;83.39;99801.03;5091225;28;20044;-77
2022/03/03 06:24:38;;;;;;;65.60;27.50;;;;;;;1.33;83.92;99798.38;5092792;28;20059;-79
2022/03/03 06:27:06;;;;;;;66.18;27.98;;;;;;;1.35;83.33;99806.34;5093920;28;20047;-77
2022/03/03 06:29:34;;;;;;;66.05;27.48;;;;;;;1.32;83.21;99801.97;5093603;28;20051;-78
2022/03/03 06:32:03;;;;;;;69.75;26.55;;;;;;;1.40;83.65;99799.16;5097575;28;20047;-76
2022/03/03 06:34:31;;;;;;;54.17;23.10;;;;;;;1.39;83.20;99806.25;5093858;28;20036;-78
2022/03/03 06:37:00;;;;;;;60.85;24.90;;;;;;;1.36;83.47;99795.66;5093855;28;20040;-78
2022/03/03 06:39:28;;;;;;;49.88;21.80;;;;;;;1.36;83.16;99795.66;5096349;28;20515;-78
2022/03/03 06:41:55;;;;;;;55.45;21.65;;;;;;;1.36;83.15;99797.47;5093250;28;20044;-76
2022/03/03 06:44:23;;;;;;;43.50;20.95;;;;;;;1.43;83.05;99788.44;5093345;28;20056;-78
2022/03/03 06:46:51;;;;;;;39.17;20.55;;;;;;;1.43;83.13;99789.34;5093562;28;20044;-79
2022/03/03 06:49:18;;;;;;;44.90;19.92;;;;;;;1.41;83.49;99799.09;5093481;28;20047;-80
2022/03/03 06:51:47;;;;;;;50.65;21.60;;;;;;;1.43;83.39;99799.09;5093084;28;20117;-78
2022/03/03 06:54:18;;;;;;;62.65;24.75;;;;;;;1.52;83.67;99803.38;5093610;28;20082;-76
2022/03/03 06:56:47;;;;;;;65.43;25.50;;;;;;;1.54;82.98;99798.91;5092635;28;20048;-78
2022/03/03 06:59:21;;;;;;;73.93;26.85;;;;;;;1.56;82.81;99800.59;5093449;28;20063;-77
2022/03/03 07:01:49;;;;;;;50.38;22.00;;;;;;;1.57;82.93;99798.81;5093175;28;20040;-78
2022/03/03 07:04:18;;;;;;;44.25;20.95;;;;;;;1.63;82.28;99806.69;5093567;28;20044;-78
2022/03/03 07:06:46;;;;;;;40.03;20.48;;;;;;;1.60;82.07;99812.06;5093370;28;20489;-78
2022/03/03 07:09:16;;;;;;;45.85;20.70;;;;;;;1.64;82.50;99803.13;5093408;28;20067;-77
2022/03/03 07:11:45;;;;;;;45.92;20.08;;;;;;;1.62;81.42;99799.59;5093770;28;20054;-78
2022/03/03 07:14:13;;;;;;;47.78;20.48;;;;;;;1.59;82.26;99811.19;5089943;28;20047;-77
2022/03/03 07:16:42;;;;;;;47.30;20.38;;;;;;;1.67;81.42;99791.53;5089385;28;20051;-77
2022/03/03 07:19:22;;;;;;;36.33;17.90;;;;;;;1.83;80.96;99797.41;5089413;28;20058;-77
2022/03/03 07:21:58;;;;;;;46.33;20.08;;;;;;;1.86;79.98;99790.22;5091342;28;20538;-74
2022/03/03 07:24:30;;;;;;;38.92;18.38;;;;;;;1.88;79.43;99787.53;5089918;28;20047;-78
2022/03/03 07:27:00;;;;;;;46.97;20.05;;;;;;;1.96;79.04;99785.59;5089777;28;20048;-76
2022/03/03 07:29:30;;;;;;;33.47;16.42;;;;;;;2.00;78.16;99781.94;5090040;28;20077;-76
2022/03/03 07:32:00;;;;;;;48.03;20.88;;;;;;;1.99;77.86;99780.19;5089530;28;20074;-76
2022/03/03 07:34:31;;;;;;;41.40;19.85;;;;;;;1.93;78.28;99788.31;5089698;28;20507;-77
2022/03/03 07:37:04;;;;;;;35.17;16.90;;;;;;;1.92;78.44;99781.25;5089722;28;20097;-77
2022/03/03 07:39:39;;;;;;;32.40;16.75;;;;;;;1.93;78.37;99772.34;5089478;28;20050;-76
2022/03/03 07:42:11;;;;;;;45.80;20.23;;;;;;;2.02;78.79;99771.22;5098400;28;20105;-76
2022/03/03 07:44:38;;;;;;;35.42;17.52;;;;;;;2.10;78.15;99771.06;5095985;28;20509;-76
2022/03/03 07:47:07;;;;;;;33.40;16.55;;;;;;;2.22;76.96;99777.91;5099886;28;20042;-77
2022/03/03 07:49:35;;;;;;;32.83;16.38;;;;;;;2.22;76.82;99776.09;5098606;28;20547;-78
2022/03/03 07:52:04;;;;;;;32.63;15.13;;;;;;;2.28;76.26;99781.31;5099788;28;20043;-78
2022/03/03 07:54:33;;;;;;;38.75;17.52;;;;;;;2.40;75.40;99771.28;5100662;28;20135;-78
2022/03/03 07:57:01;;;;;;;34.75;16.65;;;;;;;2.42;74.85;99769.44;5098563;28;20056;-78
2022/03/03 07:59:33;;;;;;;36.10;16.48;;;;;;;2.31;75.58;99770.59;5096041;28;20051;-78
2022/03/03 08:02:02;;;;;;;36.25;17.67;;;;;;;2.39;74.85;99773.06;5102717;28;20131;-76
2022/03/03 08:04:31;;;;;;;28.48;14.15;;;;;;;2.43;73.88;99774.72;5103298;28;20036;-78
2022/03/03 08:07:05;;;;;;;30.95;14.98;;;;;;;2.39;74.35;99766.88;5097814;28;20047;-78
2022/03/03 08:09:36;;;;;;;34.03;16.50;;;;;;;2.45;74.43;99777.38;5108580;28;20040;-78
2022/03/03 08:12:05;;;;;;;41.20;18.27;;;;;;;2.48;74.00;99782.63;5102392;28;20051;-78
2022/03/03 08:14:34;;;;;;;30.83;15.15;;;;;;;2.49;73.75;99783.53;5099308;28;20040;-76
2022/03/03 08:17:01;;;;;;;29.95;14.95;;;;;;;2.59;73.80;99785.91;5096289;28;20040;-75
2022/03/03 08:19:31;;;;;;;33.22;16.80;;;;;;;2.61;73.51;99788.56;5103313;28;20039;-78
2022/03/03 08:21:58;;;;;;;40.40;18.60;;;;;;;2.58;73.30;99781.47;5104352;28;20404;-78
2022/03/03 08:24:27;;;;;;;29.17;14.85;;;;;;;2.64;72.93;99782.25;5095973;28;20039;-78
2022/03/03 08:26:57;;;;;;;29.00;15.32;;;;;;;2.67;73.19;99775.06;5094881;28;20075;-78
2022/03/03 08:29:25;;;;;;;27.45;13.63;;;;;;;2.78;72.24;99774.78;5094338;28;20115;-76
2022/03/03 08:31:55;;;;;;;28.60;13.30;;;;;;;2.87;72.23;99768.34;5094955;28;20044;-78
2022/03/03 08:34:29;;;;;;;26.88;13.63;;;;;;;2.75;72.05;99775.72;5092688;28;20048;-78
2022/03/03 08:37:00;;;;;;;27.77;14.45;;;;;;;2.83;71.65;99775.56;5105685;28;20040;-77
2022/03/03 08:39:29;;;;;;;30.70;14.45;;;;;;;2.71;71.89;99783.88;5083670;28;20052;-77
2022/03/03 08:41:59;;;;;;;29.08;14.18;;;;;;;2.70;72.21;99779.44;5104009;28;20067;-77
2022/03/03 08:44:29;;;;;;;29.90;14.50;;;;;;;2.72;72.49;99769.63;5103433;28;20042;-78
2022/03/03 08:46:58;;;;;;;25.23;12.88;;;;;;;3.04;71.60;99759.88;5104269;28;20492;-76
2022/03/03 08:49:31;;;;;;;25.63;12.32;;;;;;;3.39;70.29;99760.72;5103465;28;20040;-77
2022/03/03 08:51:58;;;;;;;23.92;11.55;;;;;;;3.77;68.60;99750.72;5105959;28;20450;-77
2022/03/03 08:54:26;;;;;;;23.00;11.98;;;;;;;3.99;68.20;99752.75;5101397;28;20070;-79
2022/03/03 08:57:01;;;;;;;27.35;13.25;;;;;;;3.94;67.39;99744.00;5103353;28;20055;-77
2022/03/03 08:59:28;;;;;;;24.35;10.15;;;;;;;3.89;65.65;99745.94;5100751;28;20400;-78
2022/03/03 09:01:57;;;;;;;23.13;10.75;;;;;;;4.11;65.02;99750.63;5105403;28;20055;-77
2022/03/03 09:04:27;;;;;;;23.35;10.63;;;;;;;4.09;63.81;99748.00;5102038;28;20036;-78
2022/03/03 09:06:55;;;;;;;22.80;10.70;;;;;;;4.06;63.55;99748.97;5105222;28;20043;-77
2022/03/03 09:09:22;;;;;;;27.70;11.73;;;;;;;4.37;64.20;99747.13;5106619;28;20114;-76
2022/03/03 09:11:50;;;;;;;26.35;12.57;;;;;;;4.43;63.86;99746.91;5105188;28;20043;-81
2022/03/03 09:14:19;;;;;;;21.27;10.45;;;;;;;4.42;60.78;99745.16;5107079;28;20044;-82
2022/03/03 09:16:46;;;;;;;24.52;10.82;;;;;;;4.52;59.69;99739.53;5084351;28;20044;-81
2022/03/03 09:19:14;;;;;;;19.23;9.70;;;;;;;4.63;59.40;99742.72;5104557;28;20126;-81
2022/03/03 09:21:42;;;;;;;18.73;8.52;;;;;;;4.64;57.99;99734.63;5106587;28;20039;-81
2022/03/03 09:24:09;;;;;;;18.15;8.00;;;;;;;4.97;56.61;99736.22;5102653;28;20493;-81
2022/03/03 09:26:37;;;;;;;18.48;8.15;;;;;;;4.81;54.09;99737.66;5102978;28;20131;-80
2022/03/03 09:29:05;;;;;;;18.63;8.07;;;;;;;4.58;53.54;99737.50;5099830;28;20043;-80
2022/03/03 09:31:34;;;;;;;17.58;8.73;;;;;;;4.57;54.16;99738.44;5111773;28;20135;-79
2022/03/03 09:34:01;;;;;;;20.75;11.15;;;;;;;4.73;54.40;99738.81;5111572;28;20122;-80
2022/03/03 09:36:29;;;;;;;20.85;10.35;;;;;;;4.67;54.08;99733.66;5111732;28;20043;-80
2022/03/03 09:38:56;;;;;;;24.42;9.85;;;;;;;4.82;55.82;99740.28;5111627;28;20044;-80
2022/03/03 09:41:23;;;;;;;22.15;10.30;;;;;;;4.78;56.30;99742.19;5104143;28;20419;-79
2022/03/03 09:43:51;;;;;;;20.90;9.95;;;;;;;4.70;56.21;99743.41;5111234;28;20240;-80
2022/03/03 09:46:19;;;;;;;18.85;10.40;;;;;;;4.55;56.19;99742.97;5111185;28;20051;-80
2022/03/03 09:48:47;;;;;;;20.23;10.55;;;;;;;4.44;56.94;99747.81;5102405;28;20044;-79
2022/03/03 09:51:15;;;;;;;19.23;9.82;;;;;;;4.41;56.86;99738.06;5090880;28;20048;-79
2022/03/03 09:53:44;;;;;;;23.17;10.50;;;;;;;4.47;55.98;99753.91;5090380;28;20036;-79
2022/03/03 09:56:12;;;;;;;22.75;11.25;;;;;;;4.27;56.88;99741.19;5090608;28;20063;-79
2022/03/03 09:58:39;;;;;;;25.10;11.10;;;;;;;4.23;58.92;99749.38;5090942;28;20052;-80
2022/03/03 10:01:08;;;;;;;23.10;10.77;;;;;;;4.21;58.04;99744.06;5091093;28;20074;-79
2022/03/03 10:03:37;;;;;;;19.38;10.65;;;;;;;4.25;57.91;99740.34;5090871;28;20048;-78
2022/03/03 10:06:06;;;;;;;21.50;10.65;;;;;;;4.19;57.96;99745.91;5090664;28;20337;-80
2022/03/03 10:08:36;;;;;;;23.88;11.07;;;;;;;4.27;58.55;99737.66;5090920;28;20052;-80
2022/03/03 10:11:05;;;;;;;24.77;11.23;;;;;;;4.24;58.05;99743.94;5090338;28;20047;-79
2022/03/03 10:13:46;;;;;;;23.33;11.77;;;;;;;4.18;57.96;99741.47;5090785;28;20044;-79
2022/03/03 10:16:20;;;;;;;21.83;11.18;;;;;;;4.31;57.83;99737.50;5093648;28;20044;-81
2022/03/03 10:18:53;;;;;;;23.83;11.40;;;;;;;4.32;57.17;99738.38;5090685;28;20489;-79
2022/03/03 10:21:27;;;;;;;21.27;10.68;;;;;;;4.24;57.61;99741.28;5090275;28;20057;-79
2022/03/03 10:23:55;;;;;;;20.70;11.02;;;;;;;4.13;59.64;99740.75;5090201;28;20485;-79
2022/03/03 10:26:22;;;;;;;21.20;10.52;;;;;;;4.17;58.14;99734.38;5090307;28;20052;-80
2022/03/03 10:28:50;;;;;;;19.70;10.60;;;;;;;4.12;57.61;99736.34;5090237;28;20039;-80
2022/03/03 10:31:21;;;;;;;24.05;10.50;;;;;;;4.20;57.02;99729.81;5097000;28;20043;-80
2022/03/03 10:33:50;;;;;;;22.02;10.57;;;;;;;4.22;55.91;99735.09;5110810;28;20424;-80
2022/03/03 10:36:20;;;;;;;23.35;10.73;;;;;;;4.25;56.82;99732.34;5103451;28;20043;-80
2022/03/03 10:38:54;;;;;;;22.10;10.70;;;;;;;4.18;56.24;99730.78;5100613;28;20066;-79
2022/03/03 10:41:32;;;;;;;37.30;11.63;;;;;;;4.16;56.98;99733.53;5102507;28;20208;-80
2022/03/03 10:44:01;;;;;;;25.23;10.35;;;;;;;4.18;56.94;99729.00;5102615;28;20055;-80
2022/03/03 10:46:29;;;;;;;20.30;9.90;;;;;;;4.10;55.90;99728.38;5102987;28;20039;-79
2022/03/03 10:48:57;;;;;;;20.85;10.73;;;;;;;4.01;56.04;99731.31;5103022;28;20040;-79
2022/03/03 10:51:25;;;;;;;20.45;9.85;;;;;;;4.00;57.22;99730.44;5099474;28;20046;-79
2022/03/03 10:53:58;;;;;;;27.42;13.40;;;;;;;4.02;57.83;99727.72;5103480;28;20485;-80
2022/03/03 10:56:26;;;;;;;21.90;10.10;;;;;;;4.14;56.26;99719.34;5100587;28;20048;-80
2022/03/03 10:58:55;;;;;;;20.17;10.07;;;;;;;4.39;55.15;99712.31;5102259;28;20093;-79
2022/03/03 11:01:26;;;;;;;20.58;9.93;;;;;;;4.61;54.79;99713.31;5101932;28;20044;-79
2022/03/03 11:03:54;;;;;;;32.90;16.20;;;;;;;4.70;54.26;99706.81;5106285;28;20089;-79
2022/03/03 11:06:24;;;;;;;36.25;19.67;;;;;;;4.78;54.26;99706.53;5102450;28;20040;-79
2022/03/03 11:08:52;;;;;;;38.85;18.10;;;;;;;4.92;54.65;99708.75;5104597;28;20090;-79
2022/03/03 11:11:23;;;;;;;25.55;12.85;;;;;;;5.05;53.09;99698.44;5102215;28;20044;-79
2022/03/03 11:13:50;;;;;;;21.65;10.88;;;;;;;5.03;53.27;99708.34;5103463;28;20412;-79
2022/03/03 11:16:19;;;;;;;22.55;11.02;;;;;;;5.04;53.93;99699.38;5104260;28;20051;-79
2022/03/03 11:18:48;;;;;;;34.38;13.20;;;;;;;5.16;52.79;99698.06;5099817;28;20046;-79
2022/03/03 11:21:15;;;;;;;25.67;12.80;;;;;;;4.97;51.97;99696.06;5102742;28;20392;-79
2022/03/03 11:23:45;;;;;;;34.33;14.55;;;;;;;5.25;52.70;99702.22;5103666;28;20047;-79
2022/03/03 11:26:23;;;;;;;27.38;12.93;;;;;;;5.27;52.66;99695.88;5085189;28;20051;-80
2022/03/03 11:28:58;;;;;;;24.73;11.95;;;;;;;5.27;51.71;99698.53;5101448;28;20051;-79
2022/03/03 11:31:31;;;;;;;24.73;11.57;;;;;;;5.53;51.95;99690.50;5082306;28;20048;-81
2022/03/03 11:34:35;;;;;;;33.65;11.80;;;;;;;5.75;52.06;99680.69;5106879;28;20067;-80